createdAt,value
2023-05-14T00:00:56.573Z,41.99
2023-05-14T00:01:56.654Z,41.96
2023-05-14T00:02:56.791Z,41.93
2023-05-14T00:03:56.856Z,41.94
2023-05-14T00:04:56.761Z,41.96
2023-05-14T00:05:56.811Z,41.95
2023-05-14T00:06:56.881Z,41.95
2023-05-14T00:07:56.921Z,41.98
2023-05-14T00:08:56.983Z,41.97
2023-05-14T00:09:57.053Z,41.94
2023-05-14T00:10:57.114Z,41.96
2023-05-14T00:11:57.188Z,41.98
2023-05-14T00:12:57.211Z,42.05
2023-05-14T00:13:57.270Z,41.99
2023-05-14T00:14:57.334Z,41.94
2023-05-14T00:15:57.409Z,41.97
2023-05-14T00:16:57.435Z,41.94
2023-05-14T00:17:57.534Z,41.95
2023-05-14T00:18:57.588Z,41.96
2023-05-14T00:19:57.889Z,41.95
2023-05-14T00:20:57.646Z,41.96
2023-05-14T00:21:57.733Z,41.97
2023-05-14T00:22:57.762Z,41.97
2023-05-14T00:23:57.817Z,41.98
2023-05-14T00:24:57.869Z,41.98
2023-05-14T00:25:57.898Z,41.96
2023-05-14T00:26:57.954Z,42.00
2023-05-14T00:27:58.035Z,41.94
2023-05-14T00:28:58.059Z,42.02
2023-05-14T00:29:58.114Z,41.95
2023-05-14T00:30:58.182Z,42.00
2023-05-14T00:31:58.211Z,41.93
2023-05-14T00:32:58.315Z,42.01
2023-05-14T00:33:58.289Z,41.97
2023-05-14T00:34:58.444Z,42.00
2023-05-14T00:35:58.392Z,41.95
2023-05-14T00:36:58.461Z,41.95
2023-05-14T00:37:58.505Z,42.02
2023-05-14T00:38:58.556Z,42.02
2023-05-14T00:39:58.614Z,42.00
2023-05-14T00:40:58.656Z,42.01
2023-05-14T00:41:58.705Z,42.00
2023-05-14T00:42:58.749Z,41.93
2023-05-14T00:43:58.815Z,41.97
2023-05-14T00:44:58.857Z,41.96
2023-05-14T00:45:58.902Z,42.05
2023-05-14T00:46:59.065Z,41.99
2023-05-14T00:47:58.991Z,41.97
2023-05-14T00:48:58.996Z,41.96
2023-05-14T00:49:59.029Z,41.99
2023-05-14T00:50:59.084Z,42.00
2023-05-14T00:51:59.190Z,41.98
2023-05-14T00:52:59.188Z,41.98
2023-05-14T00:53:59.276Z,41.94
2023-05-14T00:54:59.329Z,41.97
2023-05-14T00:55:59.355Z,41.99
2023-05-14T00:56:59.410Z,42.05
2023-05-14T00:57:59.468Z,41.99
2023-05-14T00:58:59.521Z,42.02
2023-05-14T00:59:59.549Z,42.00
2023-05-14T01:00:59.637Z,41.99
2023-05-14T01:01:59.665Z,41.97
2023-05-14T01:02:59.775Z,41.99
2023-05-14T01:03:59.893Z,42.02
2023-05-14T01:04:59.799Z,42.01
2023-05-14T01:05:59.846Z,42.02
2023-05-14T01:06:59.919Z,42.04
2023-05-14T01:07:59.975Z,42.02
2023-05-14T01:09:00.010Z,42.03
2023-05-14T01:10:00.070Z,42.02
2023-05-14T01:11:00.132Z,42.02
2023-05-14T01:12:00.213Z,41.98
2023-05-14T01:13:00.214Z,41.99
2023-05-14T01:14:00.308Z,42.01
2023-05-14T01:15:00.323Z,42.06
2023-05-14T01:16:00.396Z,42.05
2023-05-14T01:17:00.435Z,42.00
2023-05-14T01:18:00.544Z,42.03
2023-05-14T01:19:00.595Z,41.97
2023-05-14T01:20:00.662Z,42.03
2023-05-14T01:21:00.681Z,42.03
2023-05-14T01:22:00.709Z,42.00
2023-05-14T01:23:00.742Z,42.01
2023-05-14T01:24:00.850Z,42.10
2023-05-14T01:25:00.854Z,42.03
2023-05-14T01:26:00.884Z,42.07
2023-05-14T01:27:00.938Z,42.03
2023-05-14T01:28:00.988Z,42.05
2023-05-14T01:29:00.987Z,42.04
2023-05-14T01:30:01.030Z,42.02
2023-05-14T01:31:01.061Z,42.02
2023-05-14T01:32:01.172Z,42.06
2023-05-14T01:33:01.202Z,42.01
2023-05-14T01:34:01.237Z,42.06
2023-05-14T01:35:01.404Z,42.02
2023-05-14T01:36:01.349Z,42.05
2023-05-14T01:37:01.408Z,42.11
2023-05-14T01:38:01.458Z,42.07
2023-05-14T01:39:01.505Z,42.03
2023-05-14T01:40:01.598Z,42.05
2023-05-14T01:41:01.605Z,42.02
2023-05-14T01:42:01.661Z,42.06
2023-05-14T01:43:01.740Z,42.05
2023-05-14T01:44:01.768Z,42.09
2023-05-14T01:45:01.849Z,42.08
2023-05-14T01:46:01.856Z,42.03
2023-05-14T01:47:01.890Z,42.06
2023-05-14T01:48:01.954Z,42.06
2023-05-14T01:49:01.937Z,42.06
2023-05-14T01:50:01.977Z,42.06
2023-05-14T01:51:02.015Z,42.05
2023-05-14T01:52:02.022Z,42.03
2023-05-14T01:53:02.096Z,42.05
2023-05-14T01:54:02.098Z,42.04
2023-05-14T01:55:02.143Z,42.05
2023-05-14T01:56:02.195Z,42.07
2023-05-14T01:57:02.252Z,42.06
2023-05-14T01:58:02.306Z,42.05
2023-05-14T01:59:02.374Z,42.05
2023-05-14T02:00:02.422Z,42.03
2023-05-14T02:01:02.512Z,42.08
2023-05-14T02:02:02.609Z,42.09
2023-05-14T02:03:02.641Z,42.07
2023-05-14T02:04:02.679Z,42.03
2023-05-14T02:05:03.490Z,42.05
2023-05-14T02:06:02.754Z,42.07
2023-05-14T02:07:02.819Z,42.03
2023-05-14T02:08:02.875Z,42.06
2023-05-14T02:09:02.899Z,42.09
2023-05-14T02:10:02.939Z,42.05
2023-05-14T02:11:02.984Z,42.07
2023-05-14T02:12:03.006Z,42.14
2023-05-14T02:13:03.061Z,42.07
2023-05-14T02:14:03.079Z,42.07
2023-05-14T02:15:03.124Z,42.06
2023-05-14T02:16:03.246Z,42.06
2023-05-14T02:17:03.205Z,42.09
2023-05-14T02:18:03.349Z,42.06
2023-05-14T02:19:03.347Z,42.02
2023-05-14T02:20:03.294Z,42.08
2023-05-14T02:21:03.355Z,42.04
2023-05-14T02:22:03.386Z,42.02
2023-05-14T02:23:03.422Z,42.04
2023-05-14T02:24:03.480Z,42.04
2023-05-14T02:25:03.487Z,42.03
2023-05-14T02:26:03.539Z,42.04
2023-05-14T02:27:03.569Z,42.05
2023-05-14T02:28:03.623Z,42.04
2023-05-14T02:29:03.674Z,42.06
2023-05-14T02:30:03.690Z,42.06
2023-05-14T02:31:03.766Z,42.08
2023-05-14T02:32:03.761Z,42.05
2023-05-14T02:33:03.981Z,42.06
2023-05-14T02:34:03.798Z,42.07
2023-05-14T02:35:03.852Z,42.09
2023-05-14T02:36:03.902Z,42.07
2023-05-14T02:37:03.920Z,42.02
2023-05-14T02:38:03.963Z,42.04
2023-05-14T02:39:04.000Z,42.06
2023-05-14T02:40:04.074Z,42.04
2023-05-14T02:41:04.094Z,42.06
2023-05-14T02:42:04.138Z,42.06
2023-05-14T02:43:04.173Z,42.04
2023-05-14T02:44:04.223Z,42.11
2023-05-14T02:45:04.268Z,42.06
2023-05-14T02:46:04.308Z,42.05
2023-05-14T02:47:04.383Z,42.07
2023-05-14T02:48:04.375Z,42.04
2023-05-14T02:49:04.358Z,42.08
2023-05-14T02:50:04.384Z,42.07
2023-05-14T02:51:04.386Z,42.03
2023-05-14T02:52:04.405Z,42.05
2023-05-14T02:53:04.420Z,42.04
2023-05-14T02:54:04.424Z,42.07
2023-05-14T02:55:04.444Z,42.05
2023-05-14T02:56:04.462Z,42.09
2023-05-14T02:57:04.462Z,42.11
2023-05-14T02:58:04.472Z,42.10
2023-05-14T02:59:04.469Z,42.03
2023-05-14T03:00:04.476Z,42.07
2023-05-14T03:01:04.496Z,42.06
2023-05-14T03:02:04.505Z,42.03
2023-05-14T03:03:04.491Z,42.06
2023-05-14T03:04:04.492Z,42.08
2023-05-14T03:05:04.498Z,42.04
2023-05-14T03:06:04.502Z,42.07
2023-05-14T03:07:04.513Z,42.04
2023-05-14T03:08:04.510Z,42.05
2023-05-14T03:09:04.525Z,42.07
2023-05-14T03:10:04.552Z,42.06
2023-05-14T03:11:04.589Z,42.06
2023-05-14T03:12:04.581Z,42.04
2023-05-14T03:13:04.606Z,42.12
2023-05-14T03:14:04.608Z,42.11
2023-05-14T03:15:04.630Z,42.10
2023-05-14T03:16:04.636Z,42.06
2023-05-14T03:17:04.759Z,42.08
2023-05-14T03:18:04.720Z,42.09
2023-05-14T03:19:04.730Z,42.05
2023-05-14T03:20:04.676Z,42.10
2023-05-14T03:21:04.720Z,42.07
2023-05-14T03:22:04.703Z,42.07
2023-05-14T03:23:04.708Z,42.05
2023-05-14T03:24:04.705Z,42.06
2023-05-14T03:25:04.716Z,42.07
2023-05-14T03:26:04.776Z,42.08
2023-05-14T03:27:04.754Z,42.10
2023-05-14T03:28:04.787Z,42.13
2023-05-14T03:29:04.793Z,42.06
2023-05-14T03:30:04.813Z,42.05
2023-05-14T03:31:04.953Z,42.08
2023-05-14T03:32:04.856Z,42.05
2023-05-14T03:33:04.922Z,42.04
2023-05-14T03:34:04.873Z,42.04
2023-05-14T03:35:04.873Z,42.08
2023-05-14T03:36:04.954Z,42.07
2023-05-14T03:37:04.904Z,42.06
2023-05-14T03:38:04.924Z,42.08
2023-05-14T03:39:04.907Z,42.07
2023-05-14T03:40:04.905Z,42.03
2023-05-14T03:41:04.901Z,42.10
2023-05-14T03:42:04.912Z,42.09
2023-05-14T03:43:04.949Z,42.10
2023-05-14T03:44:05.003Z,42.08
2023-05-14T03:45:04.995Z,42.09
2023-05-14T03:46:05.059Z,42.10
2023-05-14T03:47:05.002Z,42.08
2023-05-14T03:48:05.109Z,42.06
2023-05-14T03:49:05.097Z,42.08
2023-05-14T03:50:05.113Z,42.08
2023-05-14T03:51:05.084Z,42.09
2023-05-14T03:52:05.103Z,42.07
2023-05-14T03:53:05.091Z,42.07
2023-05-14T03:54:05.094Z,42.06
2023-05-14T03:55:05.101Z,42.15
2023-05-14T03:56:05.090Z,42.08
2023-05-14T03:57:05.108Z,42.09
2023-05-14T03:58:05.097Z,42.10
2023-05-14T03:59:05.096Z,42.16
2023-05-14T04:00:05.090Z,42.08
2023-05-14T04:01:05.099Z,42.11
2023-05-14T04:02:05.097Z,42.12
2023-05-14T04:03:05.138Z,42.08
2023-05-14T04:04:05.251Z,42.10
2023-05-14T04:05:05.120Z,42.08
2023-05-14T04:06:05.084Z,42.07
2023-05-14T04:07:05.090Z,42.07
2023-05-14T04:08:05.066Z,42.04
2023-05-14T04:09:05.080Z,42.09
2023-05-14T04:10:05.114Z,42.11
2023-05-14T04:11:05.132Z,42.07
2023-05-14T04:12:05.123Z,42.08
2023-05-14T04:13:05.125Z,42.07
2023-05-14T04:14:05.136Z,42.05
2023-05-14T04:15:05.137Z,42.07
2023-05-14T04:16:05.123Z,42.09
2023-05-14T04:17:05.132Z,42.14
2023-05-14T04:18:05.165Z,42.08
2023-05-14T04:19:05.173Z,42.10
2023-05-14T04:20:05.121Z,42.09
2023-05-14T04:21:05.119Z,42.06
2023-05-14T04:22:05.110Z,42.09
2023-05-14T04:23:05.148Z,42.11
2023-05-14T04:24:05.092Z,42.04
2023-05-14T04:25:05.078Z,42.07
2023-05-14T04:26:05.109Z,42.10
2023-05-14T04:27:05.073Z,42.08
2023-05-14T04:28:05.066Z,42.05
2023-05-14T04:29:05.062Z,42.10
2023-05-14T04:30:05.053Z,42.09
2023-05-14T04:31:05.062Z,42.11
2023-05-14T04:32:05.174Z,42.09
2023-05-14T04:33:05.073Z,42.08
2023-05-14T04:34:05.040Z,42.08
2023-05-14T04:35:05.026Z,42.09
2023-05-14T04:36:05.033Z,42.06
2023-05-14T04:37:05.031Z,42.13
2023-05-14T04:38:05.045Z,42.10
2023-05-14T04:39:05.014Z,42.14
2023-05-14T04:40:05.017Z,42.10
2023-05-14T04:41:05.019Z,42.10
2023-05-14T04:42:05.049Z,42.17
2023-05-14T04:43:05.007Z,42.18
2023-05-14T04:44:05.006Z,42.11
2023-05-14T04:45:04.997Z,42.15
2023-05-14T04:46:05.027Z,42.14
2023-05-14T04:47:04.992Z,42.10
2023-05-14T04:48:05.045Z,42.11
2023-05-14T04:49:04.981Z,42.09
2023-05-14T04:50:05.011Z,42.13
2023-05-14T04:51:06.935Z,42.12
2023-05-14T04:52:05.000Z,42.13
2023-05-14T04:53:05.002Z,42.08
2023-05-14T04:54:05.065Z,42.09
2023-05-14T04:55:05.031Z,42.12
2023-05-14T04:56:05.017Z,42.08
2023-05-14T04:57:05.016Z,42.13
2023-05-14T04:58:05.021Z,42.11
2023-05-14T04:59:05.133Z,42.07
2023-05-14T05:00:05.025Z,42.14
2023-05-14T05:01:05.196Z,42.14
2023-05-14T05:02:05.046Z,42.07
2023-05-14T05:03:05.097Z,42.12
2023-05-14T05:04:05.083Z,42.15
2023-05-14T05:05:05.067Z,42.14
2023-05-14T05:06:05.081Z,42.11
2023-05-14T05:07:05.083Z,42.10
2023-05-14T05:08:05.076Z,42.14
2023-05-14T05:09:05.085Z,42.12
2023-05-14T05:10:05.056Z,42.16
2023-05-14T05:11:05.058Z,42.22
2023-05-14T05:12:05.070Z,42.15
2023-05-14T05:13:05.047Z,42.23
2023-05-14T05:14:05.071Z,42.14
2023-05-14T05:15:05.034Z,42.14
2023-05-14T05:16:05.089Z,42.12
2023-05-14T05:17:05.036Z,42.09
2023-05-14T05:18:05.088Z,42.13
2023-05-14T05:19:05.067Z,42.12
2023-05-14T05:20:05.057Z,42.13
2023-05-14T05:21:05.089Z,42.11
2023-05-14T05:22:05.082Z,42.13
2023-05-14T05:23:05.041Z,42.17
2023-05-14T05:24:05.051Z,42.15
2023-05-14T05:25:05.039Z,42.17
2023-05-14T05:26:05.048Z,42.15
2023-05-14T05:27:05.037Z,42.20
2023-05-14T05:28:05.040Z,42.13
2023-05-14T05:29:05.039Z,42.13
2023-05-14T05:30:05.021Z,42.16
2023-05-14T05:31:05.050Z,42.13
2023-05-14T05:32:05.020Z,42.17
2023-05-14T05:33:05.062Z,42.13
2023-05-14T05:34:05.005Z,42.11
2023-05-14T05:35:05.002Z,42.11
2023-05-14T05:36:05.013Z,42.11
2023-05-14T05:37:05.001Z,42.07
2023-05-14T05:38:04.982Z,42.09
2023-05-14T05:39:04.964Z,42.08
2023-05-14T05:40:04.978Z,42.10
2023-05-14T05:41:05.093Z,42.10
2023-05-14T05:42:05.003Z,42.07
2023-05-14T05:43:04.969Z,42.08
2023-05-14T05:44:04.942Z,42.12
2023-05-14T05:45:04.934Z,42.08
2023-05-14T05:46:04.977Z,42.11
2023-05-14T05:47:05.011Z,42.06
2023-05-14T05:48:04.966Z,42.06
2023-05-14T05:49:04.928Z,42.09
2023-05-14T05:50:04.955Z,42.12
2023-05-14T05:51:05.049Z,42.06
2023-05-14T05:52:04.921Z,42.09
2023-05-14T05:53:04.931Z,42.08
2023-05-14T05:54:04.944Z,42.10
2023-05-14T05:55:04.930Z,42.07
2023-05-14T05:56:04.939Z,42.10
2023-05-14T05:57:04.898Z,42.08
2023-05-14T05:58:04.901Z,42.10
2023-05-14T05:59:04.898Z,42.10
2023-05-14T06:00:04.897Z,42.10
2023-05-14T06:01:04.916Z,42.14
2023-05-14T06:02:04.910Z,42.14
2023-05-14T06:03:04.919Z,42.09
2023-05-14T06:04:04.882Z,42.10
2023-05-14T06:05:04.891Z,42.15
2023-05-14T06:06:04.895Z,42.16
2023-05-14T06:07:04.857Z,42.13
2023-05-14T06:08:04.848Z,42.11
2023-05-14T06:09:04.844Z,42.16
2023-05-14T06:10:04.846Z,42.09
2023-05-14T06:11:04.880Z,42.12
2023-05-14T06:12:04.843Z,42.12
2023-05-14T06:13:04.847Z,42.10
2023-05-14T06:14:04.834Z,42.12
2023-05-14T06:15:04.829Z,42.15
2023-05-14T06:16:04.890Z,42.12
2023-05-14T06:17:04.817Z,42.15
2023-05-14T06:18:04.875Z,42.15
2023-05-14T06:19:04.885Z,42.22
2023-05-14T06:20:04.803Z,42.12
2023-05-14T06:21:04.823Z,42.11
2023-05-14T06:22:04.818Z,42.14
2023-05-14T06:23:04.793Z,42.16
2023-05-14T06:24:04.784Z,42.16
2023-05-14T06:25:04.797Z,42.12
2023-05-14T06:26:04.778Z,42.12
2023-05-14T06:27:04.765Z,42.17
2023-05-14T06:28:04.765Z,42.09
2023-05-14T06:29:04.760Z,42.14
2023-05-14T06:30:04.757Z,42.12
2023-05-14T06:31:04.764Z,42.09
2023-05-14T06:32:04.833Z,42.12
2023-05-14T06:33:04.804Z,42.15
2023-05-14T06:34:04.752Z,42.12
2023-05-14T06:35:04.754Z,42.15
2023-05-14T06:36:04.752Z,42.12
2023-05-14T06:37:04.743Z,42.09
2023-05-14T06:38:04.741Z,42.12
2023-05-14T06:39:04.740Z,42.16
2023-05-14T06:40:04.740Z,42.18
2023-05-14T06:41:04.752Z,42.09
2023-05-14T06:42:04.765Z,42.10
2023-05-14T06:43:04.721Z,42.07
2023-05-14T06:44:04.723Z,42.16
2023-05-14T06:45:04.717Z,42.14
2023-05-14T06:46:04.751Z,42.10
2023-05-14T06:47:04.720Z,42.08
2023-05-14T06:48:04.806Z,42.10
2023-05-14T06:49:04.783Z,42.14
2023-05-14T06:50:04.701Z,42.10
2023-05-14T06:51:04.695Z,42.11
2023-05-14T06:52:04.713Z,42.16
2023-05-14T06:53:04.684Z,42.13
2023-05-14T06:54:04.697Z,42.10
2023-05-14T06:55:04.675Z,42.12
2023-05-14T06:56:04.679Z,42.09
2023-05-14T06:57:04.666Z,42.10
2023-05-14T06:58:04.665Z,42.11
2023-05-14T06:59:04.664Z,42.13
2023-05-14T07:00:04.672Z,42.10
2023-05-14T07:01:04.683Z,42.09
2023-05-14T07:02:04.689Z,42.07
2023-05-14T07:03:04.698Z,42.09
2023-05-14T07:04:04.736Z,42.15
2023-05-14T07:05:04.672Z,42.15
2023-05-14T07:06:04.692Z,42.13
2023-05-14T07:07:04.709Z,42.14
2023-05-14T07:08:04.718Z,42.13
2023-05-14T07:09:04.762Z,42.10
2023-05-14T07:10:04.756Z,42.15
2023-05-14T07:11:04.766Z,42.12
2023-05-14T07:12:04.771Z,42.10
2023-05-14T07:13:04.828Z,42.11
2023-05-14T07:14:04.799Z,42.11
2023-05-14T07:15:04.831Z,42.10
2023-05-14T07:16:04.842Z,42.12
2023-05-14T07:17:04.890Z,42.14
2023-05-14T07:18:04.863Z,42.13
2023-05-14T07:19:04.921Z,42.11
2023-05-14T07:20:04.870Z,42.09
2023-05-14T07:21:04.878Z,42.14
2023-05-14T07:22:04.909Z,42.13
2023-05-14T07:23:04.908Z,42.10
2023-05-14T07:24:04.923Z,42.12
2023-05-14T07:25:04.951Z,42.09
2023-05-14T07:26:04.960Z,42.13
2023-05-14T07:27:04.978Z,42.11
2023-05-14T07:28:04.989Z,42.15
2023-05-14T07:29:04.986Z,42.19
2023-05-14T07:30:04.989Z,42.14
2023-05-14T07:31:05.074Z,42.11
2023-05-14T07:32:05.027Z,42.19
2023-05-14T07:33:05.085Z,42.19
2023-05-14T07:34:05.069Z,42.18
2023-05-14T07:35:05.097Z,42.15
2023-05-14T07:36:05.106Z,42.15
2023-05-14T07:37:05.121Z,42.13
2023-05-14T07:38:05.123Z,42.13
2023-05-14T07:39:05.288Z,42.12
2023-05-14T07:40:05.248Z,42.14
2023-05-14T07:41:05.209Z,42.17
2023-05-14T07:42:05.223Z,42.19
2023-05-14T07:43:05.232Z,42.12
2023-05-14T07:44:05.257Z,42.16
2023-05-14T07:45:05.301Z,42.09
2023-05-14T07:46:05.316Z,42.06
2023-05-14T07:47:05.377Z,42.15
2023-05-14T07:48:05.469Z,42.18
2023-05-14T07:49:05.402Z,42.24
2023-05-14T07:50:05.445Z,42.12
2023-05-14T07:51:05.474Z,42.15
2023-05-14T07:52:05.566Z,42.13
2023-05-14T07:53:05.561Z,42.08
2023-05-14T07:54:05.617Z,42.12
2023-05-14T07:55:05.672Z,42.14
2023-05-14T07:56:05.709Z,42.15
2023-05-14T07:57:05.772Z,42.10
2023-05-14T07:58:05.822Z,42.14
2023-05-14T07:59:05.882Z,42.13
2023-05-14T08:00:05.939Z,42.09
2023-05-14T08:01:05.990Z,42.06
2023-05-14T08:02:06.112Z,42.06
2023-05-14T08:03:06.274Z,42.04
2023-05-14T08:04:06.229Z,42.09
2023-05-14T08:05:06.211Z,42.00
2023-05-14T08:06:06.268Z,42.01
2023-05-14T08:07:06.340Z,41.95
2023-05-14T08:08:06.371Z,41.97
2023-05-14T08:09:06.425Z,41.98
2023-05-14T08:10:06.510Z,42.01
2023-05-14T08:11:06.588Z,41.98
2023-05-14T08:12:06.619Z,41.92
2023-05-14T08:13:06.725Z,41.89
2023-05-14T08:14:06.738Z,41.81
2023-05-14T08:15:06.800Z,41.81
2023-05-14T08:16:06.867Z,41.80
2023-05-14T08:17:06.962Z,41.81
2023-05-14T08:18:07.025Z,41.73
2023-05-14T08:19:07.073Z,41.72
2023-05-14T08:20:07.171Z,41.68
2023-05-14T08:21:07.193Z,41.74
2023-05-14T08:22:07.262Z,41.71
2023-05-14T08:23:07.302Z,41.68
2023-05-14T08:24:07.385Z,41.67
2023-05-14T08:25:07.422Z,41.69
2023-05-14T08:26:07.487Z,41.68
2023-05-14T08:27:07.557Z,41.66
2023-05-14T08:28:07.612Z,41.69
2023-05-14T08:29:09.274Z,41.63
2023-05-14T08:30:07.694Z,41.60
2023-05-14T08:31:07.715Z,41.65
2023-05-14T08:32:16.048Z,41.63
2023-05-14T08:33:08.721Z,41.69
2023-05-14T08:34:07.638Z,41.61
2023-05-14T08:35:07.616Z,41.64
2023-05-14T08:36:07.626Z,41.67
2023-05-14T08:37:07.628Z,41.65
2023-05-14T08:38:07.612Z,41.67
2023-05-14T08:39:07.725Z,41.64
2023-05-14T08:40:07.589Z,41.61
2023-05-14T08:41:07.638Z,41.58
2023-05-14T08:42:07.725Z,41.63
2023-05-14T08:43:07.741Z,41.62
2023-05-14T08:44:07.792Z,41.61
2023-05-14T08:45:07.850Z,41.57
2023-05-14T08:46:07.894Z,41.56
2023-05-14T08:47:07.946Z,41.57
2023-05-14T08:48:08.051Z,41.54
2023-05-14T08:49:08.155Z,41.60
2023-05-14T08:50:08.131Z,41.60
2023-05-14T08:51:08.164Z,41.52
2023-05-14T08:52:08.226Z,41.52
2023-05-14T08:53:08.265Z,41.56
2023-05-14T08:54:08.323Z,41.53
2023-05-14T08:55:08.369Z,41.51
2023-05-14T08:56:08.424Z,41.52
2023-05-14T08:57:08.470Z,41.49
2023-05-14T08:58:08.505Z,41.54
2023-05-14T08:59:08.561Z,41.55
2023-05-14T09:00:08.658Z,41.64
2023-05-14T09:01:08.678Z,41.71
2023-05-14T09:02:08.740Z,41.69
2023-05-14T09:03:08.791Z,41.68
2023-05-14T09:04:08.858Z,41.71
2023-05-14T09:05:08.842Z,41.72
2023-05-14T09:06:08.899Z,41.75
2023-05-14T09:07:08.942Z,41.75
2023-05-14T09:08:08.979Z,41.73
2023-05-14T09:09:09.033Z,41.74
2023-05-14T09:10:09.081Z,41.75
2023-05-14T09:11:09.114Z,41.72
2023-05-14T09:12:09.169Z,41.69
2023-05-14T09:13:09.195Z,41.67
2023-05-14T09:14:09.250Z,41.64
2023-05-14T09:15:09.315Z,41.63
2023-05-14T09:16:09.366Z,41.65
2023-05-14T09:17:09.368Z,41.68
2023-05-14T09:18:09.453Z,41.68
2023-05-14T09:19:09.494Z,41.62
2023-05-14T09:20:09.496Z,41.61
2023-05-14T09:21:09.545Z,41.62
2023-05-14T09:22:09.589Z,41.65
2023-05-14T09:23:09.630Z,41.67
2023-05-14T09:24:09.673Z,41.63
2023-05-14T09:25:09.738Z,41.61
2023-05-14T09:26:09.754Z,41.63
2023-05-14T09:27:09.790Z,41.67
2023-05-14T09:28:09.821Z,41.63
2023-05-14T09:29:09.869Z,41.63
2023-05-14T09:30:09.936Z,41.64
2023-05-14T09:31:09.960Z,41.68
2023-05-14T09:32:09.988Z,41.68
2023-05-14T09:33:10.066Z,41.66
2023-05-14T09:34:10.068Z,41.65
2023-05-14T09:35:10.099Z,41.66
2023-05-14T09:36:10.145Z,41.68
2023-05-14T09:37:10.243Z,41.63
2023-05-14T09:38:10.229Z,41.69
2023-05-14T09:39:10.256Z,41.64
2023-05-14T09:40:10.291Z,41.65
2023-05-14T09:41:10.335Z,41.66
2023-05-14T09:42:10.399Z,41.67
2023-05-14T09:43:10.407Z,41.69
2023-05-14T09:44:10.450Z,41.67
2023-05-14T09:45:10.558Z,41.65
2023-05-14T09:46:10.525Z,41.65
2023-05-14T09:47:10.613Z,41.65
2023-05-14T09:48:10.865Z,41.69
2023-05-14T09:49:10.653Z,41.66
2023-05-14T09:50:10.691Z,41.69
2023-05-14T09:51:10.723Z,41.67
2023-05-14T09:52:10.778Z,41.68
2023-05-14T09:53:10.826Z,41.69
2023-05-14T09:54:10.895Z,41.72
2023-05-14T09:55:10.900Z,41.71
2023-05-14T09:56:10.934Z,41.67
2023-05-14T09:57:10.971Z,41.69
2023-05-14T09:58:11.005Z,41.77
2023-05-14T09:59:11.056Z,41.66
2023-05-14T10:00:11.113Z,41.70
2023-05-14T10:01:11.228Z,41.69
2023-05-14T10:02:11.183Z,41.71
2023-05-14T10:03:11.240Z,41.70
2023-05-14T10:04:11.351Z,41.72
2023-05-14T10:05:11.281Z,41.70
2023-05-14T10:06:11.321Z,41.73
2023-05-14T10:07:11.355Z,41.72
2023-05-14T10:08:11.379Z,41.68
2023-05-14T10:09:11.424Z,41.69
2023-05-14T10:10:11.460Z,41.71
2023-05-14T10:11:11.507Z,41.69
2023-05-14T10:12:11.545Z,41.71
2023-05-14T10:13:11.583Z,41.72
2023-05-14T10:14:11.613Z,41.69
2023-05-14T10:15:11.636Z,41.70
2023-05-14T10:16:11.693Z,41.70
2023-05-14T10:17:11.897Z,41.72
2023-05-14T10:18:11.811Z,41.73
2023-05-14T10:19:11.946Z,41.71
2023-05-14T10:20:11.842Z,41.70
2023-05-14T10:21:11.871Z,41.68
2023-05-14T10:22:11.921Z,41.72
2023-05-14T10:23:11.951Z,41.70
2023-05-14T10:24:11.993Z,41.74
2023-05-14T10:25:12.028Z,41.75
2023-05-14T10:26:12.061Z,41.74
2023-05-14T10:27:12.102Z,41.74
2023-05-14T10:28:12.124Z,41.76
2023-05-14T10:29:12.179Z,41.77
2023-05-14T10:30:12.202Z,41.79
2023-05-14T10:31:12.296Z,41.80
2023-05-14T10:32:12.295Z,41.78
2023-05-14T10:33:12.445Z,41.79
2023-05-14T10:34:12.354Z,41.79
2023-05-14T10:35:12.390Z,41.77
2023-05-14T10:36:12.436Z,41.79
2023-05-14T10:37:12.476Z,41.85
2023-05-14T10:38:12.502Z,41.75
2023-05-14T10:39:12.548Z,41.76
2023-05-14T10:40:12.590Z,41.79
2023-05-14T10:41:12.616Z,41.76
2023-05-14T10:42:12.671Z,41.79
2023-05-14T10:43:12.708Z,41.75
2023-05-14T10:44:12.746Z,41.75
2023-05-14T10:45:12.773Z,41.76
2023-05-14T10:46:12.833Z,41.75
2023-05-14T10:47:12.859Z,41.78
2023-05-14T10:48:12.928Z,41.80
2023-05-14T10:49:12.936Z,41.81
2023-05-14T10:50:12.982Z,41.78
2023-05-14T10:51:13.234Z,41.76
2023-05-14T10:52:13.043Z,41.79
2023-05-14T10:53:13.096Z,41.79
2023-05-14T10:54:13.106Z,41.77
2023-05-14T10:55:13.205Z,41.75
2023-05-14T10:56:13.192Z,41.77
2023-05-14T10:57:13.248Z,41.75
2023-05-14T10:58:13.275Z,41.78
2023-05-14T10:59:13.309Z,41.75
2023-05-14T11:00:13.350Z,41.72
2023-05-14T11:01:13.432Z,41.70
2023-05-14T11:02:13.462Z,41.80
2023-05-14T11:03:13.666Z,41.73
2023-05-14T11:04:13.651Z,41.71
2023-05-14T11:05:13.573Z,41.72
2023-05-14T11:06:13.599Z,41.63
2023-05-14T11:07:13.628Z,41.74
2023-05-14T11:08:13.711Z,41.71
2023-05-14T11:09:13.722Z,41.67
2023-05-14T11:10:13.752Z,41.75
2023-05-14T11:11:13.834Z,41.62
2023-05-14T11:12:13.851Z,41.54
2023-05-14T11:13:13.885Z,41.57
2023-05-14T11:14:13.919Z,41.57
2023-05-14T11:15:13.975Z,41.53
2023-05-14T11:16:22.842Z,41.51
2023-05-14T11:17:15.053Z,41.57
2023-05-14T11:18:14.044Z,41.55
2023-05-14T11:19:14.186Z,41.56
2023-05-14T11:20:13.980Z,41.59
2023-05-14T11:21:13.978Z,41.50
2023-05-14T11:22:13.975Z,41.40
2023-05-14T11:23:13.968Z,41.45
2023-05-14T11:24:13.961Z,41.41
2023-05-14T11:25:13.968Z,41.47
2023-05-14T11:26:14.036Z,41.37
2023-05-14T11:27:13.955Z,41.48
2023-05-14T11:28:13.983Z,41.43
2023-05-14T11:29:14.016Z,41.45
2023-05-14T11:30:14.087Z,41.49
2023-05-14T11:31:14.125Z,41.42
2023-05-14T11:32:14.147Z,41.45
2023-05-14T11:33:14.248Z,41.43
2023-05-14T11:34:14.235Z,41.36
2023-05-14T11:35:14.347Z,41.30
2023-05-14T11:36:14.330Z,41.39
2023-05-14T11:37:14.416Z,41.36
2023-05-14T11:38:14.437Z,41.34
2023-05-14T11:39:14.498Z,41.34
2023-05-14T11:40:14.527Z,41.37
2023-05-14T11:41:14.575Z,41.37
2023-05-14T11:42:14.684Z,41.38
2023-05-14T11:43:14.675Z,41.30
2023-05-14T11:44:14.709Z,41.27
2023-05-14T11:45:14.754Z,41.20
2023-05-14T11:46:14.819Z,41.26
2023-05-14T11:47:14.857Z,41.22
2023-05-14T11:48:15.221Z,41.21
2023-05-14T11:49:14.930Z,41.16
2023-05-14T11:50:14.971Z,41.19
2023-05-14T11:51:15.037Z,41.17
2023-05-14T11:52:15.091Z,41.32
2023-05-14T11:53:15.108Z,41.19
2023-05-14T11:54:15.160Z,41.27
2023-05-14T11:55:15.203Z,41.20
2023-05-14T11:56:15.275Z,41.19
2023-05-14T11:57:15.298Z,41.27
2023-05-14T11:58:15.352Z,41.24
2023-05-14T11:59:15.391Z,41.27
2023-05-14T12:00:15.474Z,41.35
2023-05-14T12:01:15.487Z,41.25
2023-05-14T12:02:15.576Z,41.18
2023-05-14T12:03:15.717Z,41.22
2023-05-14T12:04:15.663Z,41.26
2023-05-14T12:05:15.683Z,41.24
2023-05-14T12:06:15.723Z,41.22
2023-05-14T12:07:15.774Z,41.25
2023-05-14T12:08:15.844Z,41.29
2023-05-14T12:09:15.889Z,41.33
2023-05-14T12:10:16.004Z,41.30
2023-05-14T12:11:15.983Z,41.28
2023-05-14T12:12:16.040Z,41.39
2023-05-14T12:13:16.092Z,41.38
2023-05-14T12:14:16.152Z,41.40
2023-05-14T12:15:16.187Z,41.43
2023-05-14T12:16:16.294Z,41.34
2023-05-14T12:17:16.295Z,41.41
2023-05-14T12:18:24.017Z,41.33
2023-05-14T12:19:17.379Z,41.38
2023-05-14T12:20:16.335Z,41.47
2023-05-14T12:21:16.313Z,41.41
2023-05-14T12:22:16.322Z,41.41
2023-05-14T12:23:16.359Z,41.38
2023-05-14T12:24:16.313Z,41.40
2023-05-14T12:25:16.323Z,41.40
2023-05-14T12:26:16.288Z,41.42
2023-05-14T12:27:16.294Z,41.37
2023-05-14T12:28:16.330Z,41.44
2023-05-14T12:29:16.361Z,41.48
2023-05-14T12:30:21.883Z,41.46
2023-05-14T12:31:17.479Z,41.45
2023-05-14T12:32:16.408Z,41.48
2023-05-14T12:33:16.428Z,41.50
2023-05-14T12:34:16.392Z,41.49
2023-05-14T12:35:16.367Z,41.48
2023-05-14T12:36:21.783Z,41.48
2023-05-14T12:37:17.369Z,41.48
2023-05-14T12:38:16.350Z,41.49
2023-05-14T12:39:16.355Z,41.48
2023-05-14T12:40:16.373Z,41.53
2023-05-14T12:41:16.324Z,41.56
2023-05-14T12:42:16.336Z,41.69
2023-05-14T12:43:16.321Z,41.70
2023-05-14T12:44:16.314Z,41.75
2023-05-14T12:45:16.298Z,41.77
2023-05-14T12:46:16.364Z,41.83
2023-05-14T12:47:16.470Z,41.83
2023-05-14T12:48:16.462Z,41.84
2023-05-14T12:49:16.507Z,41.86
2023-05-14T12:50:16.587Z,41.83
2023-05-14T12:51:16.603Z,41.92
2023-05-14T12:52:33.051Z,41.77
2023-05-14T12:53:17.674Z,41.86